Time;durP1;ratioP1;P1;durP2;ratioP2;P2;SDS_P1;SDS_P2;PMS_P1;PMS_P2;Temp;Humidity;BMP_temperature;BMP_pressure;BME280_temperature;BME280_humidity;BME280_pressure;Samples;Min_cycle;Max_cycle;Signal;HPM_P1;HPM_P2
2021/12/14 00:01:45;;;;;;;10.07;6.80;;;9.00;99.90;;;9.21;95.11;101843.84;5072605;28;21166;-66
2021/12/14 00:04:12;;;;;;;14.30;7.97;;;9.00;99.90;;;9.22;95.12;101855.09;5071723;28;21217;-66
2021/12/14 00:06:41;;;;;;;12.37;7.27;;;9.00;99.90;;;9.22;95.14;101848.13;5070133;28;20616;-66
2021/12/14 00:09:21;;;;;;;14.90;7.97;;;9.00;99.90;;;9.22;95.17;101853.31;5067026;28;20638;-66
2021/12/14 00:12:09;;;;;;;12.07;7.00;;;9.00;99.90;;;9.21;95.17;101846.44;5071647;28;20606;-64
2021/12/14 00:17:12;;;;;;;10.27;7.27;;;9.00;99.90;;;9.17;95.21;101844.91;5070956;28;20657;-66
2021/12/14 00:19:39;;;;;;;11.07;6.97;;;8.90;99.90;;;9.15;95.38;101838.06;5071537;28;20626;-67
2021/12/14 00:22:20;;;;;;;11.03;6.70;;;8.90;99.90;;;9.15;95.42;101838.94;5070972;28;20630;-64
2021/12/14 00:24:48;;;;;;;10.20;6.33;;;8.90;99.90;;;9.15;95.52;101832.88;5072681;28;20619;-66
2021/12/14 00:27:18;;;;;;;10.60;6.17;;;8.90;99.90;;;9.11;95.57;101831.31;5052833;28;20990;-66
2021/12/14 00:29:50;;;;;;;13.00;7.57;;;8.90;99.90;;;9.10;95.45;101835.69;5071918;28;20607;-66
2021/12/14 00:32:20;;;;;;;10.40;6.60;;;8.90;99.90;;;9.08;95.27;101831.47;5072481;28;20666;-65
2021/12/14 00:34:54;;;;;;;14.80;7.57;;;8.90;99.90;;;9.06;95.42;101833.28;5050731;28;20706;-67
2021/12/14 00:37:33;;;;;;;14.77;8.07;;;8.80;99.90;;;9.03;95.97;101834.28;5051201;28;20611;-65
2021/12/14 00:40:16;;;;;;;13.00;6.60;;;8.80;99.90;;;8.99;95.97;101831.88;5070437;28;21202;-64
2021/12/14 00:42:45;;;;;;;11.93;6.90;;;8.70;99.90;;;8.96;96.16;101832.88;5071173;28;20676;-66
2021/12/14 00:45:14;;;;;;;13.17;7.50;;;8.70;99.90;;;8.91;96.60;101832.25;5069982;28;20614;-66
2021/12/14 00:47:41;;;;;;;10.70;6.50;;;8.70;99.90;;;8.89;96.88;101831.47;5053098;28;20637;-66
2021/12/14 00:50:09;;;;;;;11.67;7.10;;;8.70;99.90;;;8.90;96.72;101833.16;5052602;28;20623;-66
2021/12/14 00:52:37;;;;;;;14.23;7.30;;;8.60;99.90;;;8.89;96.77;101825.41;5050937;28;20694;-66
2021/12/14 00:55:09;;;;;;;15.67;8.33;;;8.70;99.90;;;8.86;97.55;101815.97;5070428;28;20629;-66
2021/12/14 00:57:37;;;;;;;14.40;8.20;;;8.70;99.90;;;8.86;97.47;101815.97;5071524;28;20607;-66
2021/12/14 01:00:14;;;;;;;13.57;7.37;;;8.60;99.90;;;8.86;97.29;101809.97;5070667;28;20796;-65
2021/12/14 01:02:42;;;;;;;13.43;7.30;;;8.70;99.90;;;8.87;97.06;101809.03;5068925;28;20650;-67
2021/12/14 01:05:17;;;;;;;12.77;7.50;;;8.60;99.90;;;8.83;97.55;101816.16;5070421;28;20664;-66
2021/12/14 01:07:45;;;;;;;17.63;9.30;;;8.60;99.90;;;8.82;97.58;101816.19;5061691;28;20627;-67
2021/12/14 01:10:28;;;;;;;13.73;8.03;;;8.60;99.90;;;8.82;98.36;101809.22;5067634;28;20716;-66
2021/12/14 01:13:01;;;;;;;14.60;8.60;;;8.60;99.90;;;8.84;98.18;101812.59;5068115;28;21004;-67
2021/12/14 01:18:47;;;;;;;15.47;9.10;;;8.70;99.90;;;8.89;98.04;101821.06;5069279;28;20659;-66
2021/12/14 01:24:24;;;;;;;19.57;9.60;;;8.70;99.90;;;8.90;98.12;101830.53;5052099;28;20649;-66
2021/12/14 01:26:51;;;;;;;17.37;9.60;;;8.70;99.90;;;8.90;98.03;101829.72;5069798;28;20654;-66
2021/12/14 01:29:19;;;;;;;15.23;8.40;;;8.70;99.90;;;8.90;97.94;101829.72;5070112;28;21215;-66
2021/12/14 01:31:48;;;;;;;13.33;8.40;;;8.70;99.90;;;8.91;97.47;101832.25;5069366;28;20634;-66
2021/12/14 01:34:20;;;;;;;21.63;10.43;;;8.70;99.90;;;8.92;98.05;101826.09;5069961;28;20615;-66
2021/12/14 01:36:54;;;;;;;15.57;9.07;;;8.70;99.90;;;8.92;97.91;101822.69;5070422;28;20638;-67
2021/12/14 01:39:48;;;;;;;18.60;7.67;;;8.70;99.90;;;8.92;97.44;101822.69;5070267;28;20700;-66
2021/12/14 01:42:21;;;;;;;12.80;7.83;;;8.70;99.90;;;8.97;97.23;101818.09;5070540;28;20649;-66
2021/12/14 01:44:54;;;;;;;19.17;9.60;;;8.70;99.90;;;8.94;97.13;101824.31;5069337;28;21198;-66
2021/12/14 01:47:30;;;;;;;19.00;10.00;;;8.70;99.90;;;8.94;97.57;101833.88;5069788;28;20631;-66
2021/12/14 01:49:57;;;;;;;16.27;8.67;;;8.70;99.90;;;8.95;98.00;101840.75;5066164;28;20634;-66
2021/12/14 01:52:29;;;;;;;16.03;8.77;;;8.70;99.90;;;8.93;97.62;101840.81;5087344;28;20728;-66
2021/12/14 01:55:19;;;;;;;13.10;7.87;;;8.70;99.90;;;8.93;97.50;101840.81;5083770;28;20639;-66
2021/12/14 01:57:47;;;;;;;20.13;9.87;;;8.70;99.90;;;8.94;97.73;101844.28;5050842;28;20634;-66
2021/12/14 02:00:33;;;;;;;22.03;10.27;;;8.70;99.90;;;8.92;98.03;101846.13;5070637;28;20987;-66
2021/12/14 02:03:05;;;;;;;19.60;9.37;;;8.70;99.90;;;8.95;97.73;101843.34;5064603;28;20984;-67
2021/12/14 02:05:51;;;;;;;14.70;8.03;;;8.70;99.90;;;8.96;97.21;101839.84;5071204;28;20611;-66
2021/12/14 02:08:30;;;;;;;16.80;9.00;;;8.80;99.90;;;8.97;97.31;101838.91;5052766;28;20713;-66
2021/12/14 02:10:59;;;;;;;11.50;6.37;;;8.80;99.90;;;8.98;97.27;101833.66;5068732;28;21087;-66
2021/12/14 02:13:35;;;;;;;16.37;7.47;;;8.80;99.90;;;8.95;97.28;101833.78;5070588;28;21010;-67
2021/12/14 02:16:06;;;;;;;17.47;8.27;;;8.80;99.90;;;8.88;97.52;101834.97;5047634;28;20638;-66
2021/12/14 02:19:02;;;;;;;12.67;6.70;;;8.70;99.90;;;8.85;97.79;101840.34;5050700;28;20655;-66
2021/12/14 02:21:30;;;;;;;11.63;6.90;;;8.60;99.90;;;8.78;98.51;101838.06;5064947;28;20637;-66
2021/12/14 02:24:00;;;;;;;18.03;9.40;;;8.50;99.90;;;8.76;98.95;101840.75;5084292;28;20618;-66
2021/12/14 02:26:34;;;;;;;18.30;9.50;;;8.50;99.90;;;8.77;98.80;101844.22;5082222;28;20661;-66
2021/12/14 02:29:05;;;;;;;17.40;9.60;;;8.50;99.90;;;8.77;99.07;101850.25;5053531;28;20615;-66
2021/12/14 02:31:37;;;;;;;21.60;9.40;;;8.60;99.90;;;8.79;99.13;101850.19;5072556;28;20631;-65
2021/12/14 02:34:06;;;;;;;15.80;8.60;;;8.60;99.90;;;8.78;99.05;101853.69;5074132;28;20650;-66
2021/12/14 02:36:46;;;;;;;10.67;5.97;;;8.60;99.90;;;8.76;99.18;101853.75;5047369;28;20643;-66
2021/12/14 02:42:10;;;;;;;13.53;6.30;;;8.60;99.90;;;8.67;99.67;101841.16;5072963;28;21030;-66
2021/12/14 02:44:38;;;;;;;14.90;7.40;;;8.40;99.90;;;8.64;99.64;101840.47;5072804;28;20623;-66
2021/12/14 02:47:13;;;;;;;16.00;7.73;;;8.40;99.90;;;8.65;100.00;101836.94;5073338;28;21184;-66
2021/12/14 02:49:41;;;;;;;14.47;7.50;;;8.40;99.90;;;8.64;99.63;101841.31;5073052;28;20720;-66
2021/12/14 02:52:26;;;;;;;12.50;7.47;;;8.40;99.90;;;8.68;99.71;101848.06;5073033;28;20661;-66
2021/12/14 02:55:01;;;;;;;18.83;9.33;;;8.50;99.90;;;8.65;100.00;101853.41;5069290;28;20999;-66
2021/12/14 02:57:34;;;;;;;16.77;9.27;;;8.40;99.90;;;8.65;100.00;101855.16;5092898;28;20608;-66
2021/12/14 03:00:10;;;;;;;15.37;8.27;;;8.40;99.90;;;8.66;100.00;101847.28;5079159;28;20662;-66
2021/12/14 03:02:37;;;;;;;13.10;7.60;;;8.40;99.90;;;8.66;100.00;101834.28;5055530;28;20644;-66
2021/12/14 03:05:15;;;;;;;14.43;7.27;;;8.50;99.90;;;8.64;100.00;101841.31;5072889;28;20622;-66
2021/12/14 03:07:52;;;;;;;13.57;7.73;;;8.50;99.90;;;8.61;100.00;101836.22;5060287;28;20635;-66
2021/12/14 03:13:06;;;;;;;12.13;5.60;;;8.40;99.90;;;8.54;100.00;101814.00;5048576;28;20661;-67
2021/12/14 03:15:47;;;;;;;14.93;7.40;;;8.30;99.90;;;8.53;100.00;101818.38;5073383;28;21226;-66
2021/12/14 03:18:35;;;;;;;11.10;4.83;;;8.30;99.90;;;8.42;100.00;101807.59;5071867;28;20630;-66
2021/12/14 03:21:06;;;;;;;13.27;6.90;;;8.20;99.90;;;8.45;100.00;101814.44;5067389;28;20623;-66
2021/12/14 03:23:39;;;;;;;11.23;6.20;;;8.20;99.90;;;8.47;100.00;101816.06;5071514;28;20677;-66
2021/12/14 03:26:10;;;;;;;14.00;7.60;;;8.20;99.90;;;8.48;100.00;101809.91;5061825;28;20666;-66
2021/12/14 03:28:39;;;;;;;19.20;6.10;;;8.20;99.90;;;8.41;100.00;101811.09;5076556;28;20634;-66
2021/12/14 03:31:12;;;;;;;9.87;5.93;;;8.20;99.90;;;8.41;100.00;101812.88;5080489;28;20626;-66
2021/12/14 03:33:46;;;;;;;17.20;6.33;;;8.20;99.90;;;8.47;100.00;101816.06;5072218;28;20649;-66
2021/12/14 03:36:22;;;;;;;4.67;2.83;;;8.30;99.90;;;8.47;100.00;101802.19;5071872;28;20619;-66
2021/12/14 03:39:09;;;;;;;12.43;6.57;;;8.30;99.90;;;8.33;100.00;101794.16;5071054;28;20646;-66
2021/12/14 03:41:46;;;;;;;7.07;4.50;;;8.20;99.90;;;8.36;100.00;101804.44;5078505;28;21201;-66
2021/12/14 03:44:37;;;;;;;9.80;5.97;;;8.10;99.90;;;8.36;100.00;101814.81;5054426;28;20611;-66
2021/12/14 03:47:12;;;;;;;8.10;4.67;;;8.10;99.90;;;8.33;100.00;101805.41;5072528;28;20635;-66
2021/12/14 03:49:55;;;;;;;11.90;5.93;;;8.10;99.90;;;8.34;100.00;101808.84;5073383;28;20645;-67
2021/12/14 03:52:35;;;;;;;12.80;6.17;;;8.10;99.90;;;8.34;100.00;101812.31;5050142;28;20659;-66
2021/12/14 03:55:19;;;;;;;15.60;6.37;;;8.10;99.90;;;8.36;100.00;101823.47;5057262;28;20649;-66
2021/12/14 03:57:46;;;;;;;15.70;7.70;;;8.20;99.90;;;8.37;100.00;101821.69;5071876;28;20645;-66
2021/12/14 04:00:23;;;;;;;12.87;6.10;;;8.20;99.90;;;8.39;100.00;101809.50;5054207;28;21028;-66
2021/12/14 04:02:56;;;;;;;9.10;5.43;;;8.20;99.90;;;8.32;100.00;101801.13;5071404;28;21272;-66
2021/12/14 04:05:23;;;;;;;7.47;3.87;;;8.10;99.90;;;8.33;100.00;101794.16;5072731;28;20614;-66
2021/12/14 04:07:50;;;;;;;9.00;5.13;;;8.10;99.90;;;8.22;100.00;101796.38;5070320;28;20637;-65
2021/12/14 04:10:27;;;;;;;6.93;4.83;;;8.00;99.90;;;8.21;100.00;101790.31;5071128;28;20726;-66
2021/12/14 04:12:54;;;;;;;8.30;4.63;;;7.90;99.90;;;8.23;100.00;101804.09;5071848;28;20649;-66
2021/12/14 04:15:21;;;;;;;10.90;5.23;;;8.00;99.90;;;8.18;100.00;101797.38;5070802;28;20635;-66
2021/12/14 04:17:49;;;;;;;14.03;6.00;;;7.90;99.90;;;8.19;100.00;101796.50;5071616;28;20607;-66
2021/12/14 04:20:28;;;;;;;8.83;5.40;;;7.90;99.90;;;8.12;100.00;101801.09;5071101;28;20665;-66
2021/12/14 04:22:56;;;;;;;16.77;8.33;;;7.90;99.90;;;8.15;100.00;101798.38;5071485;28;20654;-66
2021/12/14 04:25:30;;;;;;;18.53;7.20;;;7.90;99.90;;;8.18;100.00;101794.78;5070145;28;20631;-66
2021/12/14 04:28:00;;;;;;;9.30;5.80;;;7.90;99.90;;;8.20;100.00;101788.59;5074643;28;21013;-66
2021/12/14 04:30:28;;;;;;;11.57;6.43;;;8.00;99.90;;;8.21;100.00;101785.13;5066067;28;20719;-66
2021/12/14 04:33:01;;;;;;;6.90;4.77;;;8.00;99.90;;;8.14;100.00;101785.44;5091581;28;20646;-66
2021/12/14 04:35:33;;;;;;;17.00;6.20;;;7.90;99.90;;;8.10;100.00;101787.34;5063597;28;20635;-66
2021/12/14 04:38:07;;;;;;;17.50;7.33;;;7.90;99.90;;;8.03;100.00;101787.69;5063355;28;20636;-65
2021/12/14 04:51:54;;;;;;;10.10;5.27;;;7.80;99.90;;;7.98;100.00;101795.66;5050722;28;20654;-66
2021/12/14 04:52:02;;;;;;;8.80;5.53;;;7.80;99.90;;;7.96;100.00;101778.44;5060406;28;20643;-65
2021/12/14 04:54:51;;;;;;;13.80;7.20;;;7.80;99.90;;;7.95;100.00;101779.34;5071638;28;20618;-64
2021/12/14 04:57:37;;;;;;;4.07;3.00;;;7.80;99.90;;;7.96;100.00;101760.25;5070704;28;20733;-64
2021/12/14 05:00:46;;;;;;;6.17;3.57;;;7.70;99.90;;;7.95;100.00;101743.81;5050244;28;20842;-64
2021/12/14 05:03:28;;;;;;;10.17;5.20;;;7.80;99.90;;;7.87;100.00;101752.84;5031193;28;20665;-65
2021/12/14 05:09:24;;;;;;;4.57;3.70;;;7.60;99.90;;;7.79;100.00;101748.00;5060409;28;20642;-64
2021/12/14 05:11:59;;;;;;;6.73;3.90;;;7.60;99.90;;;7.75;100.00;101731.66;5067226;28;20635;-64
2021/12/14 05:14:29;;;;;;;13.60;7.80;;;7.60;99.90;;;7.75;100.00;101721.28;5070757;28;20628;-64
2021/12/14 05:17:02;;;;;;;10.80;5.30;;;7.50;99.90;;;7.65;100.00;101719.13;5052064;28;21132;-64
2021/12/14 05:19:33;;;;;;;6.80;4.00;;;7.50;99.90;;;7.73;100.00;101722.28;5071629;28;20663;-65
2021/12/14 05:22:16;;;;;;;10.07;3.97;;;7.50;99.90;;;7.67;100.00;101733.75;5069153;28;20630;-64
2021/12/14 05:24:49;;;;;;;2.60;1.33;;;7.50;99.90;;;7.60;100.00;101731.50;5052987;28;20619;-64
2021/12/14 05:27:25;;;;;;;5.40;2.97;;;7.40;99.90;;;7.56;100.00;101732.53;5052589;28;20631;-64
2021/12/14 05:30:00;;;;;;;14.90;6.77;;;7.30;99.90;;;7.56;100.00;101720.38;5048324;28;20630;-65
2021/12/14 05:32:28;;;;;;;9.80;4.97;;;7.30;99.90;;;7.56;100.00;101715.19;5067595;28;20642;-64
2021/12/14 05:34:54;;;;;;;14.63;5.80;;;7.40;99.90;;;7.58;100.00;101702.97;5068576;28;20631;-64
2021/12/14 05:37:27;;;;;;;11.27;6.43;;;7.30;99.90;;;7.55;100.00;101700.53;5069325;28;20638;-65
2021/12/14 05:40:02;;;;;;;9.73;4.37;;;7.40;99.90;;;7.44;100.00;101707.06;5069132;28;20659;-65
2021/12/14 05:45:23;;;;;;;7.00;3.77;;;7.30;99.90;;;7.56;100.00;101712.56;5068924;28;20674;-64
2021/12/14 05:47:55;;;;;;;13.40;5.70;;;7.40;99.90;;;7.54;100.00;101709.19;5050899;28;20606;-64
2021/12/14 05:50:40;;;;;;;5.03;2.73;;;7.30;99.90;;;7.57;100.00;101703.91;5050979;28;20635;-64
2021/12/14 05:53:08;;;;;;;12.20;6.43;;;7.40;99.90;;;7.56;100.00;101709.16;5070573;28;20634;-64
2021/12/14 05:55:39;;;;;;;4.43;3.67;;;7.30;99.90;;;7.57;100.00;101706.50;5069176;28;20629;-64
2021/12/14 05:58:22;;;;;;;6.07;2.77;;;7.40;99.90;;;7.59;100.00;101701.22;5070794;28;20640;-64
2021/12/14 06:00:59;;;;;;;2.37;2.20;;;7.40;99.90;;;7.53;100.00;101701.50;5068349;28;20662;-64
2021/12/14 06:03:34;;;;;;;9.37;5.73;;;7.30;99.90;;;7.45;100.00;101703.56;5051296;28;21216;-64
2021/12/14 06:06:02;;;;;;;12.67;6.77;;;7.30;99.90;;;7.51;100.00;101717.16;5073745;28;20617;-65
2021/12/14 06:08:35;;;;;;;14.23;4.83;;;7.30;99.90;;;7.44;100.00;101718.28;5054950;28;20641;-65
2021/12/14 06:11:03;;;;;;;4.00;2.43;;;7.20;99.90;;;7.38;100.00;101723.75;5056705;28;20621;-65
2021/12/14 06:13:45;;;;;;;7.83;3.70;;;7.30;99.90;;;7.47;100.00;101718.19;5072170;28;20662;-65
2021/12/14 06:16:34;;;;;;;6.63;3.57;;;7.30;99.90;;;7.40;100.00;101721.09;5057654;28;21047;-64
2021/12/14 06:19:21;;;;;;;20.57;7.17;;;7.20;99.90;;;7.45;100.00;101724.34;5040867;28;20653;-63
2021/12/14 06:21:54;;;;;;;7.70;4.57;;;7.30;99.90;;;7.41;100.00;101713.22;5065371;28;21190;-64
2021/12/14 06:24:25;;;;;;;7.50;4.37;;;7.20;99.90;;;7.45;100.00;101708.75;5073164;28;20637;-65
2021/12/14 06:26:59;;;;;;;11.27;5.20;;;7.20;99.90;;;7.43;100.00;101724.38;5073057;28;20636;-63
2021/12/14 06:29:34;;;;;;;13.40;6.70;;;7.20;99.90;;;7.44;100.00;101731.28;5051127;28;20623;-64
2021/12/14 06:32:30;;;;;;;4.33;2.30;;;7.20;99.90;;;7.47;100.00;101735.50;5070021;28;21224;-64
2021/12/14 06:35:05;;;;;;;14.13;6.87;;;7.30;99.90;;;7.56;100.00;101741.16;5065821;28;20645;-64
2021/12/14 06:38:07;;;;;;;13.70;6.60;;;7.40;99.90;;;7.60;100.00;101753.09;5055726;28;20618;-65
2021/12/14 06:40:41;;;;;;;9.70;4.70;;;7.50;99.90;;;7.54;100.00;101745.56;5051578;28;20663;-65
2021/12/14 06:43:17;;;;;;;11.03;5.23;;;7.30;99.90;;;7.55;100.00;101756.81;5054129;28;20653;-64
2021/12/14 06:45:55;;;;;;;9.20;4.70;;;7.30;99.90;;;7.57;100.00;101755.00;5053659;28;20655;-64
2021/12/14 06:48:33;;;;;;;10.80;5.50;;;7.40;99.90;;;7.57;100.00;101766.22;5056607;28;21451;-64
2021/12/14 06:51:05;;;;;;;10.57;6.33;;;7.40;99.90;;;7.59;100.00;101753.16;5064637;28;20650;-64
2021/12/14 06:53:33;;;;;;;18.60;9.40;;;7.40;99.90;;;7.60;100.00;101763.47;5059134;28;20635;-65
2021/12/14 06:56:07;;;;;;;17.80;8.37;;;7.40;99.90;;;7.63;100.00;101765.97;5045714;28;20634;-65
2021/12/14 06:58:45;;;;;;;16.03;8.23;;;7.50;99.90;;;7.63;100.00;101765.97;5055653;28;21172;-64
2021/12/14 07:01:19;;;;;;;11.97;6.53;;;7.40;99.90;;;7.66;100.00;101776.25;5072369;28;20726;-65
2021/12/14 07:04:16;;;;;;;14.27;6.70;;;7.50;99.90;;;7.56;100.00;101776.69;5072033;28;21245;-65
2021/12/14 07:06:56;;;;;;;13.00;7.80;;;7.40;99.90;;;7.59;100.00;101785.19;5053083;28;20611;-64
2021/12/14 07:09:38;;;;;;;12.50;6.93;;;7.40;99.90;;;7.62;100.00;101792.84;5052616;28;20635;-65
2021/12/14 07:12:20;;;;;;;9.60;5.93;;;7.40;99.90;;;7.66;100.00;101797.03;5073121;28;20642;-64
2021/12/14 07:14:50;;;;;;;16.33;7.80;;;7.50;99.90;;;7.70;100.00;101811.56;5071132;28;20653;-63
2021/12/14 07:17:30;;;;;;;18.17;8.20;;;7.50;99.90;;;7.69;100.00;101811.63;5073862;28;21165;-65
2021/12/14 07:20:18;;;;;;;7.50;5.10;;;7.50;99.90;;;7.65;100.00;101805.72;5049032;28;20663;-64
2021/12/14 07:22:53;;;;;;;8.73;2.73;;;7.50;99.90;;;7.55;99.69;101796.63;5071579;28;20654;-64
2021/12/14 07:25:32;;;;;;;10.50;5.60;;;7.40;99.90;;;7.55;100.00;101808.75;5071382;28;21196;-64
2021/12/14 07:28:05;;;;;;;11.00;5.60;;;7.30;99.90;;;7.54;100.00;101813.09;5050943;28;20637;-64
2021/12/14 07:30:44;;;;;;;14.10;7.03;;;7.30;99.90;;;7.53;99.71;101814.03;5063447;28;20642;-64
2021/12/14 07:33:12;;;;;;;12.27;6.53;;;7.30;99.90;;;7.53;100.00;101807.97;5050624;28;20639;-65
2021/12/14 07:35:57;;;;;;;14.37;7.07;;;7.40;99.90;;;7.43;100.00;101804.06;5058688;28;20645;-64
2021/12/14 07:38:49;;;;;;;13.77;7.33;;;7.40;99.90;;;7.44;99.84;101810.94;5065164;28;20643;-65
2021/12/14 07:41:23;;;;;;;11.40;5.97;;;7.30;99.90;;;7.45;99.92;101818.66;5070700;28;20708;-64
2021/12/14 07:44:10;;;;;;;10.83;5.33;;;7.30;99.90;;;7.37;100.00;101815.53;5071071;28;20662;-64
2021/12/14 07:46:53;;;;;;;4.87;4.00;;;7.20;99.90;;;7.34;100.00;101810.47;5072065;28;20618;-64
2021/12/14 07:49:42;;;;;;;9.83;5.50;;;7.10;99.90;;;7.34;99.49;101800.09;5072099;28;20634;-64
2021/12/14 07:52:08;;;;;;;1.70;1.13;;;7.20;99.90;;;7.39;98.50;101802.50;5055474;28;20655;-64
2021/12/14 07:55:00;;;;;;;12.67;6.40;;;7.20;99.90;;;7.40;98.62;101806.78;5071299;28;20614;-64
2021/12/14 07:57:33;;;;;;;9.43;5.30;;;7.20;99.90;;;7.37;99.05;101810.34;5054430;28;20630;-64
2021/12/14 08:00:19;;;;;;;10.43;5.93;;;7.20;99.90;;;7.36;98.89;101818.19;5035876;28;21495;-64
2021/12/14 08:02:53;;;;;;;10.30;4.67;;;7.10;99.90;;;7.28;99.25;101825.44;5070426;28;20631;-64
2021/12/14 08:05:52;;;;;;;10.13;4.50;;;7.20;99.90;;;7.31;98.59;101828.75;5061295;28;20717;-64
2021/12/14 08:14:12;;;;;;;9.40;4.70;;;7.10;99.90;;;7.27;98.48;101828.94;5056267;28;20653;-64
2021/12/14 08:16:58;;;;;;;4.50;3.47;;;7.10;99.90;;;7.24;99.09;101822.09;5053266;28;20632;-64
2021/12/14 08:19:41;;;;;;;7.57;4.33;;;7.10;99.90;;;7.29;98.90;101822.78;5071485;28;21220;-65
2021/12/14 08:22:28;;;;;;;10.90;5.30;;;7.10;99.90;;;7.28;99.46;101836.69;5053266;28;20648;-65
2021/12/14 08:24:56;;;;;;;10.80;5.03;;;7.10;99.90;;;7.26;98.51;101833.28;5051216;28;20642;-64
2021/12/14 08:27:26;;;;;;;10.87;5.20;;;7.10;99.90;;;7.24;99.55;101824.69;5069665;28;20622;-64
2021/12/14 08:29:59;;;;;;;3.20;2.53;;;7.10;99.90;;;7.24;98.67;101826.47;5052371;28;20645;-64
2021/12/14 08:32:34;;;;;;;2.10;1.50;;;7.10;99.90;;;7.19;98.52;101831.84;5050639;28;20647;-64
2021/12/14 08:35:05;;;;;;;12.10;4.90;;;7.00;99.90;;;7.15;98.25;101835.47;5065270;28;20638;-65
2021/12/14 08:37:36;;;;;;;4.97;3.57;;;7.00;99.90;;;7.13;99.39;101826.03;5069731;28;21201;-66
2021/12/14 08:40:15;;;;;;;14.10;6.30;;;6.90;99.90;;;7.13;98.97;101834.69;5063311;28;21031;-65
2021/12/14 08:43:11;;;;;;;5.90;4.20;;;7.00;99.90;;;7.12;99.35;101840.75;5050338;28;20646;-65
2021/12/14 08:45:45;;;;;;;7.13;3.17;;;6.90;99.90;;;7.23;98.25;101829.97;5054341;28;21206;-65
2021/12/14 08:48:35;;;;;;;6.10;3.07;;;7.10;99.90;;;7.21;98.39;101830.03;5071591;28;20682;-65
2021/12/14 08:51:14;;;;;;;11.30;5.53;;;7.00;99.90;;;7.24;97.06;101835.09;5075719;28;20633;-65
2021/12/14 08:53:56;;;;;;;5.90;3.80;;;7.10;99.90;;;7.23;96.74;101835.16;5068338;28;20658;-64
2021/12/14 08:56:29;;;;;;;7.10;3.67;;;7.10;99.90;;;7.24;97.06;101835.09;5067325;28;21281;-64
2021/12/14 08:58:56;;;;;;;8.03;3.50;;;7.00;99.90;;;7.26;97.27;101835.03;5070776;28;20618;-64
2021/12/14 09:01:27;;;;;;;7.90;4.10;;;7.10;99.90;;;7.17;98.24;101836.25;5061833;28;21035;-65
2021/12/14 09:04:07;;;;;;;3.03;1.93;;;7.00;99.90;;;7.28;96.93;101841.88;5075742;28;20654;-64
2021/12/14 09:06:40;;;;;;;9.20;4.60;;;7.10;99.90;;;7.26;97.88;101854.03;5070249;28;20966;-64
2021/12/14 09:09:13;;;;;;;7.67;3.90;;;7.10;99.90;;;7.28;97.46;101857.44;5069625;28;20642;-65
2021/12/14 09:11:45;;;;;;;9.57;5.07;;;7.10;99.90;;;7.32;98.08;101861.63;5048442;28;20628;-65
2021/12/14 09:14:15;;;;;;;10.93;5.17;;;7.10;99.90;;;7.36;97.59;101870.13;5059081;28;20721;-65
2021/12/14 09:16:48;;;;;;;17.63;5.47;;;7.20;99.90;;;7.36;96.98;101870.13;5068875;28;21003;-65
2021/12/14 09:19:28;;;;;;;9.93;5.17;;;7.20;99.90;;;7.33;97.35;101858.09;5052943;28;20619;-65
2021/12/14 09:21:59;;;;;;;16.07;5.80;;;7.20;99.90;;;7.38;96.74;101852.72;5063072;28;20640;-64
2021/12/14 09:24:29;;;;;;;4.70;2.93;;;7.20;99.90;;;7.32;96.83;101851.22;5071272;28;20988;-65
2021/12/14 09:27:09;;;;;;;4.60;3.47;;;7.20;99.90;;;7.34;98.01;101851.16;5069641;28;20634;-64
2021/12/14 09:29:38;;;;;;;3.03;2.57;;;7.20;99.90;;;7.44;97.37;101852.47;5065381;28;20633;-64
2021/12/14 09:32:09;;;;;;;4.80;3.03;;;7.30;99.90;;;7.43;96.73;101850.81;5062208;28;20658;-65
2021/12/14 09:34:39;;;;;;;4.43;2.37;;;7.20;99.90;;;7.37;96.63;101846.69;5050177;28;20611;-64
2021/12/14 09:37:10;;;;;;;1.87;1.77;;;7.30;99.90;;;7.40;97.62;101843.13;5048288;28;20636;-64
2021/12/14 09:39:45;;;;;;;11.93;5.93;;;7.20;99.90;;;7.33;97.89;101841.66;5044293;28;21350;-65
2021/12/14 09:42:19;;;;;;;4.20;2.20;;;7.20;99.90;;;7.38;97.52;101840.59;5050372;28;21222;-64
2021/12/14 09:44:49;;;;;;;8.33;4.07;;;7.30;99.90;;;7.46;96.62;101846.31;5048479;28;20634;-65
2021/12/14 09:47:25;;;;;;;2.80;1.90;;;7.30;99.90;;;7.28;97.23;101847.06;5069059;28;20583;-65
2021/12/14 09:49:53;;;;;;;10.37;5.27;;;7.30;99.90;;;7.38;97.51;101847.53;5052064;28;20680;-65
2021/12/14 09:52:29;;;;;;;8.77;3.90;;;7.20;99.90;;;7.43;97.60;101854.22;5070460;28;21010;-65
2021/12/14 09:54:58;;;;;;;13.30;5.60;;;7.30;99.90;;;7.44;96.19;101858.53;5048127;28;21015;-65
2021/12/14 09:57:36;;;;;;;13.93;6.33;;;7.30;99.90;;;7.47;96.84;101866.22;5066275;28;20610;-63
2021/12/14 10:00:39;;;;;;;15.87;6.30;;;7.30;99.90;;;7.55;96.58;101868.50;5066771;28;20666;-64
2021/12/14 10:03:08;;;;;;;12.10;5.40;;;7.40;99.90;;;7.61;95.72;101869.09;5057251;28;20654;-64
2021/12/14 10:05:53;;;;;;;10.00;5.17;;;7.50;99.90;;;7.70;95.42;101860.94;5069418;28;21068;-63
2021/12/14 10:08:32;;;;;;;16.67;7.00;;;7.60;99.90;;;7.63;95.06;101867.28;5064542;28;20634;-62
2021/12/14 10:12:02;;;;;;;4.77;1.80;;;7.60;99.90;;;7.55;95.75;101866.75;5049842;28;20626;-62
2021/12/14 10:14:36;;;;;;;8.77;4.10;;;7.40;99.90;;;7.45;95.13;101870.59;5053655;28;20673;-63
2021/12/14 10:17:09;;;;;;;12.70;5.77;;;7.30;99.90;;;7.45;95.31;101869.78;5068905;28;20625;-63
2021/12/14 10:19:39;;;;;;;12.00;4.93;;;7.30;99.90;;;7.49;95.95;101868.75;5069757;28;21185;-63
2021/12/14 10:22:23;;;;;;;15.30;6.00;;;7.30;99.90;;;7.55;95.70;101866.75;5070860;28;20671;-63
2021/12/14 10:24:59;;;;;;;10.37;4.53;;;7.40;99.90;;;7.57;95.62;101861.47;5056069;28;20957;-63
2021/12/14 10:27:33;;;;;;;7.70;3.90;;;7.50;99.90;;;7.58;95.36;101861.41;5074416;28;20639;-63
2021/12/14 10:30:13;;;;;;;16.87;6.20;;;7.50;99.90;;;7.59;95.38;101862.25;5050813;28;20718;-63
2021/12/14 10:32:41;;;;;;;11.97;4.83;;;7.40;99.90;;;7.62;95.28;101869.94;5002778;28;20650;-63
2021/12/14 10:35:20;;;;;;;12.33;5.23;;;7.50;99.90;;;7.63;95.45;101869.88;5064675;28;20630;-63
2021/12/14 10:38:14;;;;;;;14.80;6.20;;;7.50;99.90;;;7.64;94.88;101866.38;5033219;28;20993;-64
2021/12/14 10:43:35;;;;;;;15.47;6.93;;;7.60;99.90;;;7.69;94.00;101864.44;5068735;28;20657;-64
2021/12/14 10:46:19;;;;;;;10.73;5.10;;;7.50;99.90;;;7.73;95.59;101871.19;5063151;28;21257;-63
2021/12/14 10:48:49;;;;;;;16.63;6.20;;;7.60;99.90;;;7.81;94.92;101878.69;5061961;28;20610;-64
2021/12/14 10:51:27;;;;;;;10.07;5.13;;;7.70;99.90;;;7.88;94.69;101864.50;5053553;28;20741;-64
2021/12/14 10:54:00;;;;;;;11.03;5.53;;;7.80;99.90;;;7.90;94.56;101870.50;5073230;28;20645;-64
2021/12/14 10:56:43;;;;;;;13.00;6.00;;;7.80;99.90;;;7.93;93.84;101874.72;5055330;28;20988;-64
2021/12/14 10:59:17;;;;;;;9.40;4.70;;;7.80;99.90;;;7.91;93.44;101854.00;5052842;28;20625;-64
2021/12/14 11:01:49;;;;;;;9.20;4.53;;;7.80;99.90;;;7.86;93.61;101852.50;5042992;28;20657;-64
2021/12/14 11:04:36;;;;;;;10.47;5.20;;;7.70;99.90;;;7.85;94.22;101856.84;5073486;28;20618;-64
2021/12/14 11:07:28;;;;;;;9.53;5.30;;;7.70;99.90;;;7.86;94.27;101850.75;5055817;28;20636;-64
2021/12/14 11:10:10;;;;;;;5.27;2.40;;;7.70;99.90;;;7.94;93.88;101853.03;5066410;28;21021;-64
2021/12/14 11:12:42;;;;;;;13.93;4.67;;;7.80;99.90;;;7.93;93.63;101857.38;5071101;28;20657;-64
2021/12/14 11:15:21;;;;;;;12.87;5.73;;;7.80;99.90;;;7.97;94.23;101863.28;5072759;28;20627;-64
2021/12/14 11:18:09;;;;;;;13.50;6.73;;;7.80;99.90;;;8.02;93.19;101857.00;5072972;28;20630;-64
2021/12/14 11:21:07;;;;;;;12.90;6.50;;;7.90;99.90;;;8.14;92.88;101858.22;5092190;28;20637;-64
2021/12/14 11:23:40;;;;;;;9.47;4.80;;;8.00;99.90;;;8.17;93.49;101863.31;5053624;28;21221;-64
2021/12/14 11:26:18;;;;;;;16.87;6.10;;;8.00;99.90;;;8.14;92.70;101859.06;5031524;28;20726;-64
2021/12/14 11:28:47;;;;;;;13.77;5.80;;;8.00;99.90;;;8.12;92.46;101858.31;5051940;28;21172;-64
2021/12/14 11:31:45;;;;;;;9.27;4.77;;;8.00;99.90;;;8.02;93.34;101856.16;5068140;28;20634;-64
2021/12/14 11:34:27;;;;;;;15.47;5.10;;;7.80;99.90;;;7.99;92.74;101845.88;5071933;28;20977;-65